Time;durP1;ratioP1;P1;durP2;ratioP2;P2;SDS_P1;SDS_P2;PMS_P1;PMS_P2;Temp;Humidity;BMP_temperature;BMP_pressure;BME280_temperature;BME280_humidity;BME280_pressure;Samples;Min_cycle;Max_cycle;Signal;HPM_P1;HPM_P2
2023/12/19 00:01:16;;;;;;;19.40;11.45;;;6.70;99.90;;;7.30;100.00;101433.72;5067361;28;20040;-78
2023/12/19 00:03:42;;;;;;;21.65;11.95;;;6.70;99.90;;;7.43;100.00;101440.47;5071295;28;20581;-78
2023/12/19 00:06:08;;;;;;;17.83;10.88;;;6.80;99.90;;;7.49;100.00;101427.00;5069009;28;20033;-77
2023/12/19 00:08:33;;;;;;;20.48;11.45;;;6.80;99.90;;;7.39;100.00;101448.09;5075086;28;20123;-78
2023/12/19 00:10:59;;;;;;;21.80;11.45;;;6.70;99.90;;;7.48;100.00;101473.38;5053015;28;20056;-78
2023/12/19 00:13:25;;;;;;;18.20;12.13;;;6.70;99.90;;;7.48;100.00;101428.03;5068897;28;20052;-78
2023/12/19 00:15:50;;;;;;;21.10;12.77;;;6.70;99.90;;;7.46;100.00;101415.69;5061950;28;20044;-78
2023/12/19 00:18:16;;;;;;;18.80;11.73;;;6.70;99.90;;;7.32;100.00;101428.97;5073973;28;20077;-78
2023/12/19 00:20:42;;;;;;;21.27;12.02;;;6.70;99.90;;;7.36;100.00;101463.88;5070290;28;20042;-78
2023/12/19 00:23:08;;;;;;;19.77;11.82;;;6.70;99.90;;;7.47;100.00;101475.22;5070116;28;20039;-79
2023/12/19 00:25:33;;;;;;;18.15;11.05;;;6.70;99.90;;;7.40;100.00;101481.53;5068077;28;20086;-78
2023/12/19 00:28:00;;;;;;;18.98;11.88;;;6.70;99.90;;;7.46;100.00;101497.13;5073739;28;20468;-79
2023/12/19 00:30:26;;;;;;;18.67;11.57;;;6.80;99.90;;;7.51;100.00;101492.00;5064797;28;20438;-79
2023/12/19 00:32:52;;;;;;;20.42;11.88;;;6.80;99.90;;;7.45;100.00;101485.41;5075655;28;20097;-79
2023/12/19 00:35:18;;;;;;;20.60;12.35;;;6.80;99.90;;;7.53;100.00;101497.25;5075740;28;20032;-79
2023/12/19 00:37:44;;;;;;;20.42;12.38;;;6.80;99.90;;;7.62;100.00;101485.34;5074055;28;20468;-79
2023/12/19 00:40:13;;;;;;;16.95;11.57;;;6.80;99.90;;;7.58;100.00;101479.41;5086166;28;20036;-78
2023/12/19 00:42:39;;;;;;;20.15;11.50;;;6.80;99.90;;;7.51;100.00;101483.88;5058450;28;20025;-78
2023/12/19 00:45:05;;;;;;;18.05;11.30;;;6.80;99.90;;;7.42;100.00;101463.19;5068318;28;20529;-78
2023/12/19 00:47:31;;;;;;;18.38;11.80;;;6.80;99.90;;;7.62;100.00;101474.50;5040548;28;20376;-79
2023/12/19 00:49:57;;;;;;;21.27;11.98;;;6.80;99.90;;;7.55;100.00;101459.91;5061922;28;20032;-78
2023/12/19 00:52:22;;;;;;;17.42;10.95;;;6.80;99.90;;;7.61;100.00;101461.94;5059058;28;20047;-79
2023/12/19 00:54:48;;;;;;;19.33;11.18;;;6.80;99.90;;;7.56;100.00;101475.16;5086582;28;20058;-78
2023/12/19 00:57:14;;;;;;;18.55;11.73;;;6.80;99.90;;;7.54;100.00;101486.22;5051053;28;20063;-78
2023/12/19 00:59:40;;;;;;;20.17;12.00;;;6.80;99.90;;;7.65;100.00;101489.56;5045596;28;20041;-78
2023/12/19 01:02:06;;;;;;;20.30;11.20;;;6.80;99.90;;;7.56;100.00;101465.16;5062425;28;20407;-79
2023/12/19 01:04:31;;;;;;;20.23;11.35;;;6.80;99.90;;;7.55;100.00;101468.91;5069113;28;20135;-79
2023/12/19 01:06:57;;;;;;;21.30;11.57;;;6.80;99.90;;;7.57;100.00;101460.59;5043386;28;20032;-79
2023/12/19 01:09:23;;;;;;;19.02;11.70;;;6.90;99.90;;;7.67;100.00;101461.22;5068308;28;20081;-79
2023/12/19 01:11:49;;;;;;;19.80;12.38;;;6.90;99.90;;;7.67;100.00;101457.63;5035576;28;20127;-78
2023/12/19 01:14:15;;;;;;;20.40;12.10;;;6.90;99.90;;;7.81;100.00;101464.19;5067524;28;20048;-78
2023/12/19 01:16:40;;;;;;;18.85;11.52;;;6.90;99.90;;;7.62;100.00;101467.16;5068795;28;20037;-79
2023/12/19 01:19:09;;;;;;;18.67;11.70;;;6.90;99.90;;;7.73;100.00;101475.97;5074912;28;20040;-79
2023/12/19 01:21:36;;;;;;;18.25;11.70;;;6.90;99.90;;;7.53;100.00;101498.13;5072013;28;20055;-78
2023/12/19 01:24:03;;;;;;;18.23;11.23;;;6.90;99.90;;;7.62;100.00;101479.91;5068828;28;20101;-78
2023/12/19 01:26:31;;;;;;;17.67;11.93;;;6.90;99.90;;;7.62;100.00;101472.59;5053881;28;20062;-78
2023/12/19 01:28:57;;;;;;;22.55;12.75;;;6.90;99.90;;;7.63;100.00;101470.75;5057172;28;20492;-79
2023/12/19 01:31:22;;;;;;;17.92;11.45;;;6.80;99.90;;;7.56;100.00;101465.16;5069779;28;20111;-79
2023/12/19 01:33:48;;;;;;;22.20;12.23;;;6.80;99.90;;;7.51;100.00;101445.84;5068194;28;20043;-79
2023/12/19 01:36:14;;;;;;;17.33;12.00;;;6.80;99.90;;;7.46;100.00;101457.22;5068793;28;20037;-79
2023/12/19 01:38:40;;;;;;;21.85;12.85;;;6.80;99.90;;;7.43;100.00;101451.34;5068842;28;20044;-79
2023/12/19 01:41:05;;;;;;;19.77;12.73;;;6.70;99.90;;;7.23;100.00;101453.59;5071098;28;20083;-78
2023/12/19 01:43:31;;;;;;;20.75;13.55;;;6.60;99.90;;;7.14;100.00;101440.06;5081850;28;20041;-79
2023/12/19 01:45:57;;;;;;;24.42;14.70;;;6.50;99.90;;;7.30;100.00;101436.44;5072429;28;20534;-78
2023/12/19 01:48:25;;;;;;;21.42;14.25;;;6.50;99.90;;;7.22;100.00;101435.63;5073338;28;20016;-78
2023/12/19 01:50:51;;;;;;;;;;;6.40;99.90;;;7.14;100.00;101422.91;5073603;28;20041;-79
2023/12/19 01:53:19;;;;;;;24.90;14.60;;;6.40;99.90;;;7.10;100.00;101417.00;5071349;28;19920;-77
2023/12/19 01:55:51;;;;;;;22.27;13.95;;;6.40;99.90;;;7.29;100.00;101429.31;5037341;28;20122;-78
2023/12/19 01:58:19;;;;;;;21.15;14.00;;;6.40;99.90;;;7.16;100.00;101412.72;5061137;28;20098;-79
2023/12/19 02:00:45;;;;;;;;;;;6.50;99.90;;;7.22;100.00;101403.91;5047462;28;20060;-78
2023/12/19 02:03:10;;;;;;;23.45;14.02;;;6.50;99.90;;;7.27;100.00;101417.78;5071858;28;19994;-79
2023/12/19 02:05:42;;;;;;;20.67;12.68;;;6.50;99.90;;;7.30;100.00;101422.03;5071188;28;20082;-78
2023/12/19 02:08:08;;;;;;;20.30;12.70;;;6.50;99.90;;;7.25;100.00;101427.97;5072599;28;20560;-77
2023/12/19 02:10:35;;;;;;;19.88;12.35;;;6.60;99.90;;;7.30;100.00;101424.75;5038948;28;20049;-79
2023/12/19 02:13:01;;;;;;;19.75;12.00;;;6.60;99.90;;;7.37;100.00;101416.72;5072179;28;20036;-78
2023/12/19 02:15:27;;;;;;;20.45;12.35;;;6.60;99.90;;;7.38;100.00;101427.41;5072786;28;20395;-78
2023/12/19 02:17:52;;;;;;;18.63;11.57;;;6.60;99.90;;;7.30;100.00;101406.56;5085345;28;20048;-78
2023/12/19 02:20:19;;;;;;;18.85;11.85;;;6.60;99.90;;;7.42;100.00;101398.88;5076982;28;20043;-79
2023/12/19 02:22:51;;;;;;;19.00;12.07;;;6.60;99.90;;;7.40;100.00;101406.38;5072580;28;20032;-78
2023/12/19 02:25:20;;;;;;;16.17;11.63;;;6.70;99.90;;;7.33;100.00;101399.97;5055912;28;20399;-79
2023/12/19 02:27:46;;;;;;;16.35;10.95;;;6.70;99.90;;;7.43;100.00;101399.75;5077281;28;20055;-79
2023/12/19 02:30:12;;;;;;;15.68;9.90;;;6.70;99.90;;;7.39;100.00;101384.81;5071117;28;20079;-79
2023/12/19 02:32:37;;;;;;;15.02;10.07;;;6.70;99.90;;;7.26;100.00;101388.94;5078785;28;20459;-78
2023/12/19 02:35:03;;;;;;;13.50;9.50;;;6.70;99.90;;;7.59;100.00;101382.50;5075883;28;20040;-79
2023/12/19 02:37:29;;;;;;;16.05;10.52;;;6.70;99.90;;;7.50;100.00;101389.84;5073939;28;20111;-78
2023/12/19 02:39:55;;;;;;;14.60;9.63;;;6.70;99.90;;;7.49;100.00;101377.31;5072288;28;20101;-79
2023/12/19 02:42:20;;;;;;;12.93;8.63;;;6.70;99.90;;;7.36;100.00;101366.16;5078758;28;20032;-79
2023/12/19 02:44:46;;;;;;;16.02;9.75;;;6.70;99.90;;;7.31;100.00;101364.00;5076844;28;20040;-78
2023/12/19 02:47:12;;;;;;;14.48;9.73;;;6.80;99.90;;;7.41;100.00;101374.63;5071824;28;20160;-78
2023/12/19 02:49:37;;;;;;;14.75;9.82;;;6.80;99.90;;;7.39;100.00;101360.38;5071559;28;20054;-79
2023/12/19 02:52:03;;;;;;;13.98;9.65;;;6.80;99.90;;;7.30;100.00;101378.59;5047744;28;20041;-78
2023/12/19 02:54:29;;;;;;;13.60;9.57;;;6.80;99.90;;;7.32;100.00;101360.25;5071597;28;20020;-78
2023/12/19 02:56:55;;;;;;;14.30;9.48;;;6.80;99.90;;;7.44;100.00;101374.28;5069634;28;20043;-78
2023/12/19 02:59:20;;;;;;;15.80;10.05;;;6.80;99.90;;;7.33;100.00;101351.94;5048741;28;20047;-79
2023/12/19 03:01:50;;;;;;;13.45;9.48;;;6.80;99.90;;;7.38;100.00;101359.53;5079854;28;20040;-79
2023/12/19 03:04:16;;;;;;;13.40;9.25;;;6.70;99.90;;;7.52;100.00;101355.22;5055362;28;20076;-79
2023/12/19 03:06:41;;;;;;;13.60;9.73;;;6.80;99.90;;;7.42;100.00;101350.03;5033986;28;20061;-79
2023/12/19 03:09:07;;;;;;;11.88;8.50;;;6.80;99.90;;;7.34;100.00;101344.66;5039356;28;20047;-79
2023/12/19 03:11:38;;;;;;;13.40;8.80;;;6.80;99.90;;;7.45;100.00;101343.41;5076507;28;20032;-79
2023/12/19 03:14:04;;;;;;;13.63;8.40;;;6.80;99.90;;;7.47;100.00;101323.16;5082160;28;20073;-79
2023/12/19 03:16:30;;;;;;;11.10;8.27;;;6.80;99.90;;;7.56;100.00;101328.53;5061737;28;20037;-79
2023/12/19 03:18:55;;;;;;;10.15;7.05;;;6.80;99.90;;;7.52;100.00;101311.78;5070733;28;20399;-80
2023/12/19 03:21:21;;;;;;;11.95;7.70;;;6.80;99.90;;;7.56;100.00;101313.09;5037445;28;20037;-79
2023/12/19 03:23:47;;;;;;;11.70;7.90;;;6.80;99.90;;;7.51;100.00;101318.22;5069108;28;20047;-79
2023/12/19 03:26:12;;;;;;;10.85;7.75;;;6.80;99.90;;;7.44;100.00;101309.13;5068561;28;20180;-79
2023/12/19 03:28:38;;;;;;;12.40;7.97;;;6.80;99.90;;;7.53;100.00;101320.75;5073213;28;20039;-78
2023/12/19 03:31:04;;;;;;;12.43;7.75;;;6.80;99.90;;;7.44;100.00;101318.09;5076412;28;20041;-78
2023/12/19 03:33:31;;;;;;;10.60;7.93;;;6.80;99.90;;;7.56;100.00;101326.69;5070524;28;20300;-79
2023/12/19 03:35:56;;;;;;;11.40;7.80;;;6.80;99.90;;;7.59;100.00;101330.91;5075890;28;20488;-79
2023/12/19 03:38:22;;;;;;;13.27;8.52;;;6.80;99.90;;;7.45;100.00;101325.22;5043637;28;20102;-79
2023/12/19 03:40:47;;;;;;;11.27;8.30;;;6.80;99.90;;;7.49;100.00;101344.72;5071090;28;20036;-78
2023/12/19 03:43:13;;;;;;;12.38;8.55;;;6.80;99.90;;;7.39;100.00;101323.22;5069558;28;20029;-79
2023/12/19 03:45:39;;;;;;;10.52;7.63;;;6.80;99.90;;;7.52;100.00;101310.91;5070827;28;20097;-80
2023/12/19 03:48:05;;;;;;;12.95;7.78;;;6.80;99.90;;;7.56;100.00;101317.66;5070860;28;20393;-80
2023/12/19 03:50:31;;;;;;;11.35;8.27;;;6.80;99.90;;;7.48;100.00;101300.41;5077612;28;20028;-79
2023/12/19 03:52:57;;;;;;;10.73;8.15;;;6.80;99.90;;;7.43;100.00;101278.41;5070902;28;20048;-79
2023/12/19 03:55:22;;;;;;;11.93;7.95;;;6.80;99.90;;;7.36;100.00;101268.44;5071643;28;20048;-79
2023/12/19 03:57:48;;;;;;;12.18;8.20;;;6.80;99.90;;;7.39;100.00;101271.66;5069378;28;20515;-79
2023/12/19 04:00:14;;;;;;;10.35;7.28;;;6.80;99.90;;;7.52;100.00;101275.63;5054739;28;20093;-78
2023/12/19 04:02:40;;;;;;;11.77;8.60;;;6.80;99.90;;;7.39;100.00;101277.09;5069486;28;20967;-78
2023/12/19 04:05:06;;;;;;;11.50;8.75;;;6.80;99.90;;;7.42;100.00;101284.00;5070557;28;20045;-78
2023/12/19 04:07:32;;;;;;;11.10;8.02;;;6.80;99.90;;;7.50;100.00;101281.25;5070514;28;20448;-79
2023/12/19 04:09:58;;;;;;;10.52;7.28;;;6.80;99.90;;;7.47;100.00;101273.47;5070646;28;20036;-79
2023/12/19 04:12:24;;;;;;;10.23;7.82;;;6.80;99.90;;;7.55;100.00;101257.09;5069177;28;20453;-79
2023/12/19 04:14:50;;;;;;;10.48;7.53;;;6.80;99.90;;;7.44;100.00;101249.41;5070305;28;20042;-80
2023/12/19 04:17:15;;;;;;;12.45;7.90;;;6.80;99.90;;;7.42;100.00;101252.28;5037037;28;20094;-79
2023/12/19 04:19:41;;;;;;;10.38;8.27;;;6.80;99.90;;;7.41;100.00;101241.59;5068286;28;20522;-78
2023/12/19 04:22:07;;;;;;;10.95;8.02;;;6.80;99.90;;;7.40;100.00;101248.91;5072565;28;20042;-79
2023/12/19 04:24:34;;;;;;;12.82;8.57;;;6.90;99.90;;;7.56;100.00;101252.50;5070631;28;20553;-79
2023/12/19 04:26:59;;;;;;;10.90;7.77;;;6.90;99.90;;;7.68;100.00;101232.03;5073656;28;20040;-79
2023/12/19 04:29:25;;;;;;;11.20;7.85;;;6.90;99.90;;;7.61;100.00;101245.50;5084713;28;20107;-79
2023/12/19 04:31:51;;;;;;;11.02;7.68;;;6.90;99.90;;;7.76;100.00;101239.28;5068881;28;20647;-81
2023/12/19 04:34:16;;;;;;;10.40;7.32;;;6.90;99.90;;;7.71;100.00;101228.13;5073744;28;20763;-80
2023/12/19 04:36:42;;;;;;;11.52;7.68;;;6.90;99.90;;;7.77;100.00;101230.09;5069192;28;20041;-80
2023/12/19 04:39:08;;;;;;;12.48;7.43;;;6.90;99.90;;;7.70;100.00;101221.00;5077208;28;20463;-79
2023/12/19 04:41:34;;;;;;;11.23;7.75;;;6.90;99.90;;;7.47;100.00;101222.72;5073071;28;20412;-80
2023/12/19 04:44:00;;;;;;;11.15;8.32;;;6.90;99.90;;;7.63;100.00;101234.47;5070282;28;20502;-79
2023/12/19 04:46:25;;;;;;;13.15;9.05;;;6.90;99.90;;;7.69;100.00;101231.03;5069669;28;20510;-79
2023/12/19 04:48:51;;;;;;;11.52;8.18;;;6.90;99.90;;;7.55;100.00;101237.25;5077018;28;20028;-79
2023/12/19 04:51:18;;;;;;;11.50;8.38;;;6.80;99.90;;;7.40;100.00;101224.47;5069556;28;20033;-80
2023/12/19 04:53:45;;;;;;;14.18;9.00;;;6.90;99.90;;;7.55;100.00;101221.81;5053004;28;20036;-80
2023/12/19 04:56:11;;;;;;;11.70;7.68;;;6.90;99.90;;;7.60;100.00;101204.97;5069687;28;20036;-80
2023/12/19 04:58:39;;;;;;;11.63;8.60;;;6.90;99.90;;;7.60;100.00;101202.25;5070156;28;20033;-80
2023/12/19 05:01:04;;;;;;;10.98;8.45;;;6.90;99.90;;;7.55;100.00;101210.09;5069794;28;20036;-80
2023/12/19 05:03:30;;;;;;;12.77;8.32;;;6.90;99.90;;;7.54;100.00;101214.69;5046559;28;20048;-80
2023/12/19 05:05:56;;;;;;;12.75;8.25;;;6.90;99.90;;;7.49;100.00;101212.50;5051660;28;20032;-80
2023/12/19 05:08:21;;;;;;;12.63;9.00;;;6.90;99.90;;;7.68;100.00;101223.91;5069862;28;20400;-80
2023/12/19 05:10:48;;;;;;;12.48;8.82;;;6.90;99.90;;;7.66;100.00;101206.94;5051744;28;20037;-79
2023/12/19 05:13:13;;;;;;;13.75;9.52;;;6.80;99.90;;;7.46;100.00;101203.91;5067186;28;20442;-79
2023/12/19 05:15:39;;;;;;;13.85;9.77;;;6.80;99.90;;;7.33;100.00;101210.78;5072274;28;20075;-80
2023/12/19 05:18:05;;;;;;;14.75;9.48;;;6.70;99.90;;;7.36;100.00;101206.00;5073258;28;20036;-79
2023/12/19 05:20:30;;;;;;;14.25;9.35;;;6.70;99.90;;;7.22;100.00;101192.22;5073718;28;20166;-80
2023/12/19 05:22:56;;;;;;;14.02;10.30;;;6.60;99.90;;;7.22;100.00;101202.22;5057136;28;20033;-79
2023/12/19 05:25:22;;;;;;;16.90;9.88;;;6.60;99.90;;;7.16;100.00;101203.78;5074509;28;20029;-80
2023/12/19 05:27:48;;;;;;;14.75;10.25;;;6.50;99.90;;;6.93;100.00;101177.50;5076951;28;20036;-80
2023/12/19 05:30:15;;;;;;;15.77;10.52;;;6.50;99.90;;;7.03;100.00;101207.94;5076730;28;20047;-79
2023/12/19 05:32:41;;;;;;;14.52;9.75;;;6.50;99.90;;;7.09;100.00;101197.38;5074097;28;20067;-79
2023/12/19 05:35:07;;;;;;;13.95;9.38;;;6.50;99.90;;;7.10;100.00;101193.66;5072127;28;20097;-80
2023/12/19 05:37:33;;;;;;;13.73;9.43;;;6.50;99.90;;;7.05;100.00;101192.31;5044606;28;20033;-79
2023/12/19 05:39:58;;;;;;;12.57;8.90;;;6.50;99.90;;;7.13;100.00;101177.84;5053709;28;20048;-80
2023/12/19 05:42:24;;;;;;;12.73;8.90;;;6.50;99.90;;;6.95;100.00;101161.88;5083519;28;20383;-79
2023/12/19 05:44:50;;;;;;;12.13;8.35;;;6.50;99.90;;;6.99;100.00;101156.91;5057356;28;20039;-87
2023/12/19 05:47:16;;;;;;;14.82;8.35;;;6.40;99.90;;;6.81;100.00;101135.53;5073214;28;20446;-79
2023/12/19 05:49:41;;;;;;;11.63;8.02;;;6.40;99.90;;;6.87;100.00;101137.50;5075414;28;20036;-84
2023/12/19 05:52:07;;;;;;;11.90;8.90;;;6.30;99.90;;;6.81;100.00;101116.53;5051704;28;20025;-80
2023/12/19 05:54:33;;;;;;;11.95;8.40;;;6.30;99.90;;;6.76;100.00;101117.94;5075798;28;20361;-83
2023/12/19 05:56:59;;;;;;;12.27;8.55;;;6.30;99.90;;;6.73;100.00;101123.72;5077135;28;20115;-80
2023/12/19 05:59:25;;;;;;;11.82;8.32;;;6.20;99.90;;;6.85;100.00;101124.13;5076085;28;20115;-79
2023/12/19 06:01:53;;;;;;;13.43;9.10;;;6.20;99.90;;;6.86;100.00;101124.97;5073232;28;20476;-81
2023/12/19 06:04:19;;;;;;;12.98;9.00;;;6.20;99.90;;;6.75;100.00;101118.09;5071946;28;20063;-82
2023/12/19 06:06:44;;;;;;;11.48;7.82;;;6.20;99.90;;;6.72;100.00;101104.91;5077344;28;20032;-82
2023/12/19 06:09:11;;;;;;;12.45;8.57;;;6.20;99.90;;;6.74;100.00;101102.84;5069922;28;20495;-80
2023/12/19 06:11:37;;;;;;;13.10;8.43;;;6.20;99.90;;;6.85;100.00;101124.13;5071824;28;20036;-80
2023/12/19 06:14:05;;;;;;;12.77;8.60;;;6.20;99.90;;;6.80;100.00;101106.72;5049444;28;20041;-81
2023/12/19 06:16:32;;;;;;;14.68;9.50;;;6.20;99.90;;;6.80;100.00;101118.41;5070648;28;20111;-80
2023/12/19 06:18:59;;;;;;;13.63;9.73;;;6.20;99.90;;;6.80;100.00;101128.41;5070325;28;20036;-79
2023/12/19 06:21:25;;;;;;;13.00;8.70;;;6.20;99.90;;;6.86;100.00;101127.69;5070711;28;20029;-80
2023/12/19 06:23:51;;;;;;;12.75;8.65;;;6.20;99.90;;;6.86;100.00;101117.69;5071423;28;20119;-80
2023/12/19 06:26:16;;;;;;;12.60;8.73;;;6.20;99.90;;;6.61;100.00;101095.31;5076629;28;20043;-79
2023/12/19 06:28:42;;;;;;;11.38;7.90;;;6.20;99.90;;;6.81;100.00;101103.84;5071122;28;20032;-81
2023/12/19 06:31:08;;;;;;;15.38;8.98;;;6.20;99.90;;;6.78;100.00;101116.91;5059276;28;20407;-77
2023/12/19 06:33:36;;;;;;;11.80;8.32;;;6.30;99.90;;;6.89;100.00;101116.47;5078549;28;20396;-79
2023/12/19 06:36:03;;;;;;;13.38;8.43;;;6.30;99.90;;;6.80;100.00;101117.56;5040571;28;20515;-82
2023/12/19 06:38:29;;;;;;;12.88;8.32;;;6.30;99.90;;;6.87;100.00;101104.97;5050690;28;20048;-80
2023/12/19 06:40:55;;;;;;;13.02;8.23;;;6.30;99.90;;;6.91;100.00;101100.88;5081350;28;20449;-78
2023/12/19 06:43:21;;;;;;;12.63;8.82;;;6.30;99.90;;;6.92;100.00;101102.56;5039504;28;20033;-79
2023/12/19 06:45:47;;;;;;;12.85;8.57;;;6.30;99.90;;;7.02;100.00;101108.59;5076915;28;20040;-78
2023/12/19 06:48:13;;;;;;;11.75;8.40;;;6.40;99.90;;;6.99;100.00;101100.81;5071418;28;20081;-78
2023/12/19 06:50:41;;;;;;;12.73;7.95;;;6.40;99.90;;;6.96;100.00;101093.03;5071800;28;20024;-77
2023/12/19 06:53:07;;;;;;;11.95;8.57;;;6.40;99.90;;;7.00;100.00;101097.06;5070291;28;20036;-78
2023/12/19 06:55:33;;;;;;;17.52;9.25;;;6.30;99.90;;;6.99;100.00;101116.22;5045291;28;20388;-78
2023/12/19 06:57:58;;;;;;;11.93;9.20;;;6.30;99.90;;;6.93;100.00;101125.97;5072976;28;20047;-77
2023/12/19 07:00:24;;;;;;;12.57;8.98;;;6.30;99.90;;;6.78;100.00;101122.31;5075587;28;20391;-78
2023/12/19 07:02:50;;;;;;;14.68;9.70;;;6.30;99.90;;;7.02;100.00;101116.72;5078917;28;20098;-78
2023/12/19 07:05:16;;;;;;;12.63;8.98;;;6.30;99.90;;;6.87;100.00;101105.81;5071162;28;20052;-79
2023/12/19 07:07:42;;;;;;;15.38;9.52;;;6.20;99.90;;;6.90;100.00;101102.75;5076031;28;20500;-78
2023/12/19 07:10:08;;;;;;;13.27;9.65;;;6.20;99.90;;;6.95;100.00;101110.34;5043023;28;20047;-79
2023/12/19 07:12:34;;;;;;;14.43;10.20;;;6.20;99.90;;;6.88;100.00;101104.78;5061873;28;20043;-79
2023/12/19 07:15:04;;;;;;;13.43;9.23;;;6.20;99.90;;;6.76;100.00;101098.09;5072528;28;20028;-78
2023/12/19 07:17:30;;;;;;;13.85;9.25;;;6.20;99.90;;;6.66;100.00;101095.63;5076352;28;20047;-78
2023/12/19 07:19:55;;;;;;;15.75;9.73;;;6.20;99.90;;;6.70;100.00;101098.81;5070055;28;20040;-78
2023/12/19 07:22:21;;;;;;;14.98;10.20;;;6.10;99.90;;;6.65;100.00;101093.94;5066983;28;20040;-76
2023/12/19 07:24:47;;;;;;;14.18;9.88;;;6.10;99.90;;;6.63;100.00;101090.56;5057408;28;20396;-78
2023/12/19 07:27:12;;;;;;;14.25;9.75;;;6.10;99.90;;;6.67;100.00;101091.03;5071904;28;20031;-79
2023/12/19 07:29:39;;;;;;;14.30;10.02;;;6.10;99.90;;;6.53;100.00;101061.00;5075480;28;20036;-78
2023/12/19 07:32:06;;;;;;;16.88;10.65;;;6.10;99.90;;;6.51;100.00;101064.88;5076918;28;20073;-79
2023/12/19 07:34:31;;;;;;;15.52;10.98;;;6.00;99.90;;;6.55;100.00;101058.06;5071573;28;20119;-76
2023/12/19 07:36:57;;;;;;;18.85;11.65;;;6.00;99.90;;;6.44;100.00;101046.63;5075782;28;20025;-76
2023/12/19 07:39:23;;;;;;;17.05;11.00;;;6.00;99.90;;;6.53;100.00;101046.56;5067832;28;20415;-75
2023/12/19 07:41:49;;;;;;;17.13;10.38;;;6.00;99.90;;;6.55;100.00;101041.81;5071291;28;20046;-76
2023/12/19 07:44:16;;;;;;;17.33;11.30;;;6.00;99.90;;;6.55;100.00;101047.22;5068973;28;20563;-76
2023/12/19 07:46:42;;;;;;;18.60;11.77;;;6.00;99.90;;;6.68;100.00;101039.34;5038920;28;20048;-76
2023/12/19 07:49:11;;;;;;;16.20;10.23;;;6.00;99.90;;;6.68;100.00;101038.50;5071229;28;20948;-75
2023/12/19 07:51:37;;;;;;;17.48;11.05;;;6.00;99.90;;;6.56;100.00;101043.50;5071494;28;20041;-76
2023/12/19 07:54:03;;;;;;;21.17;12.35;;;5.90;99.90;;;6.58;100.00;101033.31;5070389;28;20434;-76
2023/12/19 07:56:29;;;;;;;22.80;13.25;;;6.00;99.90;;;6.48;100.00;101034.41;5070530;28;20043;-76
2023/12/19 07:58:55;;;;;;;19.27;11.73;;;5.90;99.90;;;6.51;100.00;101021.50;5070661;28;20098;-76
2023/12/19 08:01:21;;;;;;;20.10;12.15;;;5.90;99.90;;;6.53;100.00;101022.19;5070404;28;20441;-76
2023/12/19 08:03:47;;;;;;;19.77;12.60;;;5.90;99.90;;;6.52;100.00;101012.34;5071456;28;20047;-75
2023/12/19 08:06:13;;;;;;;19.65;11.60;;;5.90;99.90;;;6.57;100.00;101009.94;5070908;28;20082;-76
2023/12/19 08:08:40;;;;;;;19.40;11.57;;;5.90;99.90;;;6.58;100.00;101007.06;5070556;28;20116;-76
2023/12/19 08:11:07;;;;;;;20.58;11.40;;;5.90;99.90;;;6.58;100.00;101000.78;5040264;28;20036;-75
2023/12/19 08:13:34;;;;;;;18.55;10.77;;;5.90;99.90;;;6.58;100.00;100998.94;5071023;28;20038;-76
2023/12/19 08:16:00;;;;;;;20.67;11.18;;;5.90;99.90;;;6.66;100.00;100984.47;5070059;28;20041;-76
2023/12/19 08:18:26;;;;;;;17.10;10.38;;;5.90;99.90;;;6.66;100.00;100981.75;5063587;28;20037;-76
2023/12/19 08:20:52;;;;;;;19.13;9.85;;;5.90;99.90;;;6.59;100.00;100969.94;5075927;28;20047;-76
2023/12/19 08:23:18;;;;;;;18.40;10.30;;;6.00;99.90;;;6.59;100.00;100976.22;5076874;28;20028;-76
2023/12/19 08:25:44;;;;;;;17.25;10.27;;;6.00;99.90;;;6.66;100.00;100956.50;5069873;28;20043;-76
2023/12/19 08:28:11;;;;;;;18.17;9.63;;;6.00;99.90;;;6.65;100.00;100963.81;5070510;28;20063;-77
2023/12/19 08:30:39;;;;;;;17.75;10.30;;;6.00;99.90;;;6.66;100.00;100953.78;5072091;28;20088;-77
2023/12/19 08:33:05;;;;;;;17.38;10.63;;;6.00;99.90;;;6.75;100.00;100960.81;5047863;28;20043;-76
2023/12/19 08:35:31;;;;;;;19.33;10.27;;;6.00;99.90;;;6.73;100.00;100958.31;5074265;28;20336;-76
2023/12/19 08:37:57;;;;;;;19.20;10.35;;;6.00;99.90;;;6.61;100.00;100957.03;5070113;28;20044;-76
2023/12/19 08:40:23;;;;;;;17.90;10.23;;;6.00;99.90;;;6.62;100.00;100966.84;5069953;28;20764;-76
2023/12/19 08:42:49;;;;;;;18.35;10.82;;;6.00;99.90;;;6.69;100.00;100964.25;5070528;28;20089;-79
2023/12/19 08:45:18;;;;;;;18.58;11.18;;;6.00;99.90;;;6.68;100.00;100958.00;5069928;28;20044;-75
2023/12/19 08:47:46;;;;;;;18.38;10.32;;;6.00;99.90;;;6.65;100.00;100952.97;5070148;28;20035;-77
2023/12/19 08:50:13;;;;;;;16.37;10.37;;;6.00;99.90;;;6.66;100.00;100949.22;5069773;28;20033;-77
2023/12/19 08:52:42;;;;;;;16.47;9.80;;;6.00;99.90;;;6.68;100.00;100951.72;5070141;28;20286;-77
2023/12/19 08:55:12;;;;;;;16.17;9.75;;;6.00;99.90;;;6.75;100.00;100942.69;5069020;28;20342;-76
2023/12/19 08:57:43;;;;;;;14.20;8.52;;;6.00;99.90;;;6.73;100.00;100952.00;5035836;28;20029;-78
2023/12/19 09:00:18;;;;;;;15.23;10.15;;;6.00;99.90;;;6.73;100.00;100944.75;5070187;28;20120;-77
2023/12/19 09:02:44;;;;;;;13.55;8.27;;;6.00;99.90;;;6.78;100.00;100943.34;5056556;28;20044;-77
2023/12/19 09:05:18;;;;;;;14.13;8.60;;;6.10;99.90;;;6.75;100.00;100939.97;5071103;28;20109;-77
2023/12/19 09:07:46;;;;;;;14.00;8.88;;;6.00;99.90;;;6.89;100.00;100932.03;5065262;28;20039;-77
2023/12/19 09:10:14;;;;;;;14.98;8.52;;;6.10;99.90;;;6.84;100.00;100924.47;5074772;28;20036;-76
2023/12/19 09:12:40;;;;;;;13.75;7.40;;;6.10;99.90;;;6.87;100.00;100934.09;5077694;28;20032;-76
2023/12/19 09:15:08;;;;;;;13.73;7.45;;;6.10;99.90;;;6.79;100.00;100955.88;5069741;28;20032;-76
2023/12/19 09:17:34;;;;;;;12.25;7.47;;;6.10;99.90;;;6.85;100.00;100955.13;5057807;28;20148;-76
2023/12/19 09:20:04;;;;;;;13.40;7.20;;;6.10;99.90;;;6.76;100.00;100932.66;5066310;28;20047;-76
2023/12/19 09:22:30;;;;;;;12.15;7.10;;;6.10;99.90;;;6.92;100.00;100928.97;5074367;28;20090;-76
2023/12/19 09:24:56;;;;;;;12.43;7.40;;;6.10;99.90;;;6.99;100.00;100932.63;5070496;28;20113;-76
2023/12/19 09:27:21;;;;;;;11.48;6.82;;;6.20;99.90;;;6.90;100.00;100914.75;5070834;28;20460;-75
2023/12/19 09:29:47;;;;;;;13.05;7.15;;;6.20;99.90;;;6.91;100.00;100900.16;5069015;28;20036;-76
2023/12/19 09:32:15;;;;;;;11.43;6.93;;;6.20;99.90;;;7.02;100.00;100898.81;5069422;28;20471;-75
2023/12/19 09:34:40;;;;;;;11.32;6.43;;;6.30;99.90;;;7.07;100.00;100912.69;5070033;28;20043;-75
2023/12/19 09:37:07;;;;;;;11.07;6.38;;;6.30;99.90;;;7.09;100.00;100893.50;5038240;28;20032;-75
2023/12/19 09:39:32;;;;;;;11.95;6.47;;;6.30;99.90;;;7.15;100.00;100898.16;5034499;28;20056;-76
2023/12/19 09:41:59;;;;;;;12.30;6.95;;;6.40;99.90;;;7.13;100.00;100897.50;5068754;28;20040;-76
2023/12/19 09:44:28;;;;;;;11.40;5.93;;;6.40;99.90;;;7.30;100.00;100890.88;5068568;28;20084;-76
2023/12/19 09:46:54;;;;;;;13.05;6.00;;;6.40;99.90;;;7.21;100.00;100894.72;5069517;28;20044;-76
2023/12/19 09:49:25;;;;;;;10.80;5.88;;;6.40;99.90;;;7.16;100.00;100892.56;5069565;28;20048;-76
2023/12/19 09:51:53;;;;;;;12.90;6.32;;;6.50;99.90;;;7.16;100.00;100889.00;5069287;28;20029;-76
2023/12/19 09:54:21;;;;;;;12.20;7.25;;;6.50;99.90;;;7.18;100.00;100892.41;5070224;28;20045;-76
2023/12/19 09:56:48;;;;;;;11.77;6.22;;;6.40;99.90;;;7.16;100.00;100879.00;5038080;28;20032;-76
2023/12/19 09:59:17;;;;;;;11.97;6.17;;;6.40;99.90;;;7.25;100.00;100881.59;5069003;28;20106;-76
2023/12/19 10:01:43;;;;;;;10.02;6.28;;;6.40;99.90;;;7.10;100.00;100868.06;5070991;28;20033;-75
2023/12/19 10:04:13;;;;;;;10.73;5.72;;;6.40;99.90;;;7.06;100.00;100870.31;5073233;28;20044;-76
2023/12/19 10:06:57;;;;;;;10.13;5.85;;;6.40;99.90;;;7.18;100.00;100873.41;5078625;28;20033;-76